Time;durP1;ratioP1;P1;durP2;ratioP2;P2;SDS_P1;SDS_P2;PMS_P1;PMS_P2;Temp;Humidity;BMP_temperature;BMP_pressure;BME280_temperature;BME280_humidity;BME280_pressure;Samples;Min_cycle;Max_cycle;Signal;HPM_P1;HPM_P2
2022/09/08 00:02:02;;;;;;;1999.90;999.90;;;;;;;19.93;100.00;92459.09;6276467;22;20173;-57
2022/09/08 00:04:28;;;;;;;1999.90;999.90;;;;;;;19.95;100.00;92455.78;6302244;22;20177;-59
2022/09/08 00:06:53;;;;;;;1999.90;999.90;;;;;;;19.93;100.00;92459.09;6303045;22;20247;-59
2022/09/08 00:09:19;;;;;;;1999.90;999.90;;;;;;;19.91;100.00;92455.34;6302476;22;20202;-58
2022/09/08 00:11:45;;;;;;;1999.90;999.90;;;;;;;19.78;100.00;92436.75;6302017;22;20184;-58
2022/09/08 00:14:11;;;;;;;1999.90;999.90;;;;;;;19.76;100.00;92422.66;6301868;22;20263;-58
2022/09/08 00:16:41;;;;;;;1999.90;999.90;;;;;;;19.72;100.00;92413.94;6302863;22;20180;-58
2022/09/08 00:19:06;;;;;;;1999.90;999.90;;;;;;;19.65;100.00;92420.13;6301945;22;20191;-59
2022/09/08 00:21:31;;;;;;;1999.90;999.90;;;;;;;19.67;100.00;92402.97;6302881;22;20180;-58
2022/09/08 00:23:57;;;;;;;1999.90;999.90;;;;;;;19.63;100.00;92408.09;6302065;22;20176;-58
2022/09/08 00:26:23;;;;;;;1999.90;999.90;;;;;;;19.58;100.00;92406.94;6302526;22;20176;-58
2022/09/08 00:28:48;;;;;;;1999.90;999.90;;;;;;;19.54;100.00;92403.72;6276905;22;20254;-59
2022/09/08 00:31:15;;;;;;;1999.90;999.90;;;;;;;19.55;100.00;92388.59;6302437;22;20195;-58
2022/09/08 00:33:40;;;;;;;1999.90;999.90;;;;;;;19.53;100.00;92393.94;6303123;22;20204;-58
2022/09/08 00:36:07;;;;;;;1999.90;999.90;;;;;;;19.53;100.00;92410.56;6276618;22;20478;-58
2022/09/08 00:38:33;;;;;;;1999.90;999.90;;;;;;;19.54;100.00;92417.56;6302316;22;20241;-58
2022/09/08 00:40:59;;;;;;;1999.90;999.90;;;;;;;19.53;100.00;92430.66;6301866;22;20255;-59
2022/09/08 00:43:39;;;;;;;1999.90;999.90;;;;;;;19.43;100.00;92428.88;6302390;22;20212;-59
2022/09/08 00:46:21;;;;;;;1999.90;999.90;;;;;;;19.40;100.00;92408.53;6302236;22;20199;-59
2022/09/08 00:49:10;;;;;;;1999.90;999.90;;;;;;;19.41;100.00;92390.63;6302521;22;20176;-58
2022/09/08 00:51:41;;;;;;;1999.90;999.90;;;;;;;19.40;100.00;92385.63;6302672;22;20188;-60
2022/09/08 00:54:07;;;;;;;1999.90;999.90;;;;;;;19.32;100.00;92373.72;6277272;22;20226;-59
2022/09/08 00:56:33;;;;;;;1999.90;999.90;;;;;;;19.37;100.00;92375.63;6302405;22;20173;-59
2022/09/08 00:59:01;;;;;;;1999.90;999.90;;;;;;;19.40;100.00;92380.84;6301803;22;20188;-59
2022/09/08 01:01:27;;;;;;;1999.90;999.90;;;;;;;19.37;100.00;92381.16;6276488;22;21402;-59
2022/09/08 01:03:52;;;;;;;1999.90;999.90;;;;;;;19.39;100.00;92373.09;6301609;22;20205;-58
2022/09/08 01:15:06;;;;;;;1999.90;999.90;;;;;;;19.31;100.00;92358.41;6277607;22;20326;-58
2022/09/08 01:17:32;;;;;;;1999.90;999.90;;;;;;;19.26;100.00;92335.09;6302425;22;20217;-58
2022/09/08 01:19:59;;;;;;;1999.90;999.90;;;;;;;19.21;100.00;92311.00;6302075;22;20187;-58
2022/09/08 01:22:32;;;;;;;1999.90;999.90;;;;;;;19.15;100.00;92306.84;6301969;22;20230;-59
2022/09/08 01:25:25;;;;;;;1999.90;999.90;;;;;;;19.06;100.00;92290.69;6301584;22;20176;-59
2022/09/08 01:27:58;;;;;;;1999.90;999.90;;;;;;;18.99;100.00;92271.97;6301971;22;20212;-58
2022/09/08 01:30:23;;;;;;;1999.90;999.90;;;;;;;18.96;100.00;92237.06;6302056;22;20176;-59
2022/09/08 01:32:49;;;;;;;1999.90;999.90;;;;;;;18.94;100.00;92206.47;6302108;22;20148;-58
2022/09/08 01:35:40;;;;;;;1999.90;999.90;;;;;;;18.82;100.00;92202.41;6302604;22;20199;-59
2022/09/08 01:38:08;;;;;;;1999.90;999.90;;;;;;;18.76;100.00;92229.44;6301877;22;20253;-58
2022/09/08 01:40:33;;;;;;;1999.90;999.90;;;;;;;18.69;100.00;92285.38;6275927;22;20275;-59
2022/09/08 01:42:58;;;;;;;1999.90;999.90;;;;;;;18.66;100.00;92262.31;6301841;22;20172;-59
2022/09/08 01:45:27;;;;;;;1999.90;999.90;;;;;;;18.68;100.00;92239.63;6301468;22;20181;-58
2022/09/08 01:47:52;;;;;;;1999.90;999.90;;;;;;;18.68;100.00;92214.75;6301862;22;20176;-58
2022/09/08 01:50:18;;;;;;;1999.90;999.90;;;;;;;18.65;100.00;92199.25;6301811;22;20201;-59
2022/09/08 01:52:43;;;;;;;1999.90;999.90;;;;;;;18.71;100.00;92199.88;6302343;22;20204;-59
2022/09/08 01:55:08;;;;;;;1999.90;999.90;;;;;;;18.65;100.00;92180.63;6301365;22;20177;-59
2022/09/08 01:57:34;;;;;;;1999.90;999.90;;;;;;;18.59;100.00;92166.19;6301926;22;20176;-59
2022/09/08 01:59:59;;;;;;;1999.90;999.90;;;;;;;18.59;100.00;92165.44;6302227;22;20211;-58
2022/09/08 02:02:25;;;;;;;1999.90;999.90;;;;;;;18.52;100.00;92161.31;6301896;22;20224;-58
2022/09/08 02:04:50;;;;;;;1999.90;999.90;;;;;;;18.51;100.00;92153.53;6301612;22;20186;-58
2022/09/08 02:07:15;;;;;;;1999.90;999.90;;;;;;;18.47;100.00;92153.13;6276173;22;20172;-59
2022/09/08 02:09:41;;;;;;;1999.90;999.90;;;;;;;18.44;100.00;92159.72;6301430;22;20172;-58
2022/09/08 02:12:06;;;;;;;1999.90;999.90;;;;;;;18.45;100.00;92210.94;6301854;22;20176;-58
2022/09/08 02:14:32;;;;;;;1999.90;999.90;;;;;;;18.34;100.00;92252.56;6302104;22;20234;-59
2022/09/08 02:16:57;;;;;;;1999.90;999.90;;;;;;;18.30;100.00;92268.72;6301596;22;20179;-59
2022/09/08 02:19:22;;;;;;;1999.90;999.90;;;;;;;18.30;100.00;92285.28;6301936;22;20169;-59
2022/09/08 02:21:48;;;;;;;1999.90;999.90;;;;;;;18.24;100.00;92298.44;6303413;22;20186;-59
2022/09/08 02:24:13;;;;;;;1999.90;999.90;;;;;;;18.20;100.00;92309.06;6303340;22;20176;-58
2022/09/08 02:26:40;;;;;;;1999.90;999.90;;;;;;;18.13;100.00;92329.00;6303416;22;20215;-60
2022/09/08 02:29:08;;;;;;;1999.90;999.90;;;;;;;18.13;100.00;92323.50;6302477;22;20176;-59
2022/09/08 02:31:35;;;;;;;1999.90;999.90;;;;;;;18.08;100.00;92332.63;6302967;22;20179;-59
2022/09/08 02:34:01;;;;;;;1999.90;999.90;;;;;;;18.07;100.00;92337.38;6302938;22;20192;-58
2022/09/08 02:36:27;;;;;;;1999.90;999.90;;;;;;;18.08;100.00;92332.63;6303417;22;20176;-59
2022/09/08 02:38:54;;;;;;;1999.90;999.90;;;;;;;18.08;100.00;92329.84;6302304;22;20194;-58
2022/09/08 02:41:21;;;;;;;1999.90;999.90;;;;;;;18.04;100.00;92337.69;6276849;22;20186;-59
2022/09/08 02:43:46;;;;;;;1999.90;999.90;;;;;;;18.04;100.00;92354.28;6277413;22;20184;-60
2022/09/08 02:46:12;;;;;;;1999.90;999.90;;;;;;;18.02;100.00;92351.28;6276813;22;20177;-59
2022/09/08 02:48:38;;;;;;;1999.90;999.90;;;;;;;17.99;100.00;92341.31;6276969;22;20204;-60
2022/09/08 02:51:08;;;;;;;1999.90;999.90;;;;;;;17.97;100.00;92339.06;6302736;22;20188;-58
2022/09/08 02:53:34;;;;;;;1999.90;999.90;;;;;;;17.94;100.00;92353.16;6302597;22;20176;-58
2022/09/08 02:56:01;;;;;;;1999.90;999.90;;;;;;;17.96;100.00;92358.91;6277302;22;20181;-60
2022/09/08 02:58:26;;;;;;;1999.90;999.90;;;;;;;17.95;100.00;92366.44;6303508;22;20208;-58
2022/09/08 03:00:51;;;;;;;1999.90;999.90;;;;;;;17.94;100.00;92369.72;6302845;22;20183;-58
2022/09/08 03:03:18;;;;;;;1999.90;999.90;;;;;;;17.92;100.00;92369.53;6302491;22;20230;-57
2022/09/08 03:05:43;;;;;;;1999.90;999.90;;;;;;;17.89;100.00;92356.75;6276782;22;20262;-58
2022/09/08 03:08:10;;;;;;;1999.90;999.90;;;;;;;17.86;100.00;92355.78;6302681;22;20187;-58
2022/09/08 03:10:35;;;;;;;1999.90;999.90;;;;;;;17.84;100.00;92357.56;6302664;22;20180;-57
2022/09/08 03:13:01;;;;;;;1999.90;999.90;;;;;;;17.88;100.00;92363.56;6302749;22;20207;-58
2022/09/08 03:15:29;;;;;;;1999.90;999.90;;;;;;;17.83;100.00;92361.59;6302650;22;20263;-57
2022/09/08 03:17:55;;;;;;;1999.90;999.90;;;;;;;17.80;100.00;92370.94;6276946;22;20211;-56
2022/09/08 03:20:22;;;;;;;1999.90;999.90;;;;;;;17.82;100.00;92368.41;6302824;22;20176;-56
2022/09/08 03:22:48;;;;;;;1999.90;999.90;;;;;;;17.82;100.00;92344.31;6302301;22;20183;-58
2022/09/08 03:25:14;;;;;;;1999.90;999.90;;;;;;;17.83;100.00;92347.81;6302382;22;20182;-58
2022/09/08 03:27:39;;;;;;;1999.90;999.90;;;;;;;17.82;100.00;92349.06;6302941;22;20160;-56
2022/09/08 03:30:07;;;;;;;1999.90;999.90;;;;;;;17.80;100.00;92329.50;6277041;22;20181;-58
2022/09/08 03:32:35;;;;;;;1999.90;999.90;;;;;;;17.80;100.00;92330.28;6303091;22;20180;-57
2022/09/08 03:35:01;;;;;;;1999.90;999.90;;;;;;;17.81;100.00;92317.22;6277004;22;20187;-58
2022/09/08 03:37:27;;;;;;;1999.90;999.90;;;;;;;17.80;100.00;92324.00;6276343;22;20184;-57
2022/09/08 03:39:52;;;;;;;1999.90;999.90;;;;;;;17.81;100.00;92333.78;6302865;22;20176;-58
2022/09/08 03:42:18;;;;;;;1999.90;999.90;;;;;;;17.79;100.00;92330.78;6302433;22;20219;-58
2022/09/08 03:44:43;;;;;;;1999.90;999.90;;;;;;;17.80;100.00;92346.09;6302204;22;20169;-58
2022/09/08 03:47:09;;;;;;;1999.90;999.90;;;;;;;17.79;100.00;92339.06;6302413;22;20172;-58
2022/09/08 03:49:34;;;;;;;1999.90;999.90;;;;;;;17.77;100.00;92330.59;6276698;22;20217;-58
2022/09/08 03:52:01;;;;;;;1999.90;999.90;;;;;;;17.76;100.00;92340.13;6276557;22;20183;-56
2022/09/08 03:57:11;;;;;;;1999.90;999.90;;;;;;;17.86;100.00;92328.19;6277657;22;20184;-57
2022/09/08 03:59:36;;;;;;;1999.90;999.90;;;;;;;17.84;100.00;92332.72;6302534;22;20176;-59
2022/09/08 04:02:04;;;;;;;1999.90;999.90;;;;;;;17.82;100.00;92332.50;6302067;22;20267;-58
2022/09/08 04:04:30;;;;;;;1999.90;999.90;;;;;;;17.76;100.00;92318.03;6302555;22;20259;-59
2022/09/08 04:06:56;;;;;;;1999.90;999.90;;;;;;;17.73;100.00;92319.84;6301925;22;20204;-58
2022/09/08 04:09:21;;;;;;;1999.90;999.90;;;;;;;17.75;100.00;92316.53;6302420;22;20605;-57
2022/09/08 04:11:48;;;;;;;1999.90;999.90;;;;;;;17.70;100.00;92325.66;6302208;22;20203;-58
2022/09/08 04:14:13;;;;;;;1999.90;999.90;;;;;;;17.71;100.00;92316.09;6277019;22;20173;-56
2022/09/08 04:16:40;;;;;;;1999.90;999.90;;;;;;;17.73;100.00;92308.78;6302235;22;20175;-57
2022/09/08 04:19:06;;;;;;;1999.90;999.90;;;;;;;17.75;100.00;92294.47;6302975;22;20195;-58
2022/09/08 04:21:31;;;;;;;1999.90;999.90;;;;;;;17.72;100.00;92290.00;6302059;22;20184;-60
2022/09/08 04:23:58;;;;;;;1999.90;999.90;;;;;;;17.73;100.00;92291.47;6302741;22;20140;-58
2022/09/08 04:26:24;;;;;;;1999.90;999.90;;;;;;;17.75;100.00;92291.69;6302707;22;20176;-58
2022/09/08 04:28:49;;;;;;;1999.90;999.90;;;;;;;17.75;100.00;92297.22;6302030;22;20180;-58
2022/09/08 04:31:15;;;;;;;1999.90;999.90;;;;;;;17.76;100.00;92309.75;6276041;22;20195;-58
2022/09/08 04:33:41;;;;;;;1999.90;999.90;;;;;;;17.77;100.00;92327.81;6276238;22;20184;-58
2022/09/08 04:36:13;;;;;;;1999.90;999.90;;;;;;;17.72;100.00;92342.44;6301972;22;20169;-57
2022/09/08 04:38:39;;;;;;;1999.90;999.90;;;;;;;17.73;100.00;92363.25;6301971;22;20199;-59
2022/09/08 04:41:07;;;;;;;1999.90;999.90;;;;;;;17.75;100.00;92369.00;6302023;22;20617;-59
2022/09/08 04:43:33;;;;;;;1999.90;999.90;;;;;;;17.75;100.00;92377.28;6301806;22;20168;-60
2022/09/08 04:46:07;;;;;;;1999.90;999.90;;;;;;;17.76;100.00;92379.53;6302481;22;20175;-59
2022/09/08 04:48:34;;;;;;;1999.90;999.90;;;;;;;17.74;100.00;92393.09;6302030;22;20171;-59
2022/09/08 04:51:00;;;;;;;1999.90;999.90;;;;;;;17.73;100.00;92390.84;6302654;22;20303;-58
2022/09/08 04:53:27;;;;;;;1999.90;999.90;;;;;;;17.69;100.00;92406.97;6302361;22;20180;-59
2022/09/08 04:55:53;;;;;;;1999.90;999.90;;;;;;;17.68;100.00;92411.75;6302331;22;20180;-59
2022/09/08 04:58:19;;;;;;;1999.90;999.90;;;;;;;17.68;100.00;92417.28;6301726;22;20215;-59
2022/09/08 05:00:45;;;;;;;1999.90;999.90;;;;;;;17.70;100.00;92434.06;6302065;22;20180;-59
2022/09/08 05:03:11;;;;;;;1999.90;999.90;;;;;;;17.70;100.00;92450.63;6302104;22;20184;-58
2022/09/08 05:05:38;;;;;;;1999.90;999.90;;;;;;;17.73;100.00;92457.09;6301822;22;20195;-58
2022/09/08 05:08:04;;;;;;;1999.90;999.90;;;;;;;17.71;100.00;92470.69;6276179;22;20335;-62
2022/09/08 05:10:34;;;;;;;1999.90;999.90;;;;;;;17.76;100.00;92472.63;6302150;22;20195;-62
2022/09/08 05:13:00;;;;;;;1999.90;999.90;;;;;;;17.69;100.00;92492.53;6276123;22;20180;-62
2022/09/08 05:15:26;;;;;;;1999.90;999.90;;;;;;;17.71;100.00;92490.00;6301875;22;20171;-62
2022/09/08 05:17:52;;;;;;;1999.90;999.90;;;;;;;17.73;100.00;92493.00;6301496;22;20195;-62
2022/09/08 05:20:18;;;;;;;1999.90;999.90;;;;;;;17.76;100.00;92506.50;6302456;22;20183;-61
2022/09/08 05:22:43;;;;;;;1999.90;999.90;;;;;;;17.79;100.00;92513.00;6302316;22;20172;-61
2022/09/08 05:25:09;;;;;;;1999.90;999.90;;;;;;;17.82;100.00;92526.53;6302340;22;20180;-62
2022/09/08 05:27:35;;;;;;;1999.90;999.90;;;;;;;17.82;100.00;92531.31;6301282;22;20179;-64
2022/09/08 05:30:00;;;;;;;1999.90;999.90;;;;;;;17.84;100.00;92550.84;6301733;22;20176;-64
2022/09/08 05:32:26;;;;;;;1999.90;999.90;;;;;;;17.87;100.00;92560.84;6301918;22;20183;-64
2022/09/08 05:34:51;;;;;;;1999.90;999.90;;;;;;;17.91;100.00;92566.84;6302407;22;20226;-64
2022/09/08 05:37:17;;;;;;;1999.90;999.90;;;;;;;17.96;100.00;92582.59;6275768;22;20279;-66
2022/09/08 05:39:42;;;;;;;1999.90;999.90;;;;;;;17.97;100.00;92587.63;6302159;22;20290;-64
2022/09/08 05:42:08;;;;;;;1999.90;999.90;;;;;;;18.01;100.00;92599.13;6276446;22;20263;-64
2022/09/08 05:44:33;;;;;;;1999.90;999.90;;;;;;;18.03;100.00;92623.47;6301817;22;20279;-65
2022/09/08 05:46:59;;;;;;;1999.90;999.90;;;;;;;18.09;100.00;92660.81;6301517;22;20172;-62
2022/09/08 05:49:24;;;;;;;1999.90;999.90;;;;;;;18.10;100.00;92689.19;6302228;22;20160;-59
2022/09/08 05:51:52;;;;;;;1999.90;999.90;;;;;;;18.09;100.00;92710.53;6275908;22;20191;-59
2022/09/08 05:54:19;;;;;;;1999.90;999.90;;;;;;;18.11;100.00;92729.34;6301979;22;20179;-58
2022/09/08 05:56:44;;;;;;;1999.90;999.90;;;;;;;18.13;100.00;92759.94;6301233;22;20184;-60
2022/09/08 05:59:10;;;;;;;1999.90;999.90;;;;;;;18.19;100.00;92771.72;6301461;22;20191;-60
2022/09/08 06:01:35;;;;;;;1999.90;999.90;;;;;;;18.24;100.00;92793.00;6301799;22;20491;-61
2022/09/08 06:04:02;;;;;;;1999.90;999.90;;;;;;;18.25;100.00;92805.59;6301508;22;20180;-59
2022/09/08 06:06:29;;;;;;;1999.90;999.90;;;;;;;18.25;100.00;92827.69;6301379;22;20180;-60
2022/09/08 06:08:55;;;;;;;1999.90;999.90;;;;;;;18.39;100.00;92832.13;6301535;22;20177;-60
2022/09/08 06:11:21;;;;;;;1999.90;999.90;;;;;;;18.37;100.00;92868.56;6300942;22;20199;-60
2022/09/08 06:13:47;;;;;;;1999.90;999.90;;;;;;;18.35;100.00;92871.09;6301848;22;20171;-61
2022/09/08 06:16:14;;;;;;;1999.90;999.90;;;;;;;18.46;100.00;92882.06;6301916;22;20180;-62
2022/09/08 06:18:42;;;;;;;1999.90;999.90;;;;;;;18.46;100.00;92892.34;6301801;22;20590;-61
2022/09/08 06:21:10;;;;;;;1999.90;999.90;;;;;;;18.51;100.00;92903.34;6275888;22;20173;-61
2022/09/08 06:23:36;;;;;;;1999.90;999.90;;;;;;;18.63;100.00;92904.03;6301611;22;20188;-61
2022/09/08 06:26:33;;;;;;;1999.90;999.90;;;;;;;18.66;100.00;92922.34;6301674;22;20516;-62
2022/09/08 06:29:10;;;;;;;1999.90;999.90;;;;;;;18.71;100.00;92921.56;6275653;22;20177;-61
2022/09/08 06:31:41;;;;;;;1999.90;999.90;;;;;;;18.80;100.00;92921.97;6301334;22;20176;-61
2022/09/08 06:34:15;;;;;;;1999.90;999.90;;;;;;;18.81;100.00;92939.31;6301208;22;20176;-62
2022/09/08 06:36:49;;;;;;;1999.90;999.90;;;;;;;18.72;100.00;92959.03;6301721;22;20151;-62
2022/09/08 06:39:23;;;;;;;1999.90;999.90;;;;;;;18.76;100.00;92956.72;6301618;22;20203;-62
2022/09/08 06:42:01;;;;;;;1999.90;999.90;;;;;;;18.74;100.00;92968.31;6301722;22;20176;-62
2022/09/08 06:44:31;;;;;;;1999.90;999.90;;;;;;;18.74;100.00;92973.06;6301070;22;20180;-61
2022/09/08 06:46:57;;;;;;;1999.90;999.90;;;;;;;18.75;100.00;92980.09;6300990;22;20172;-62
2022/09/08 06:49:30;;;;;;;1999.90;999.90;;;;;;;18.71;100.00;92987.91;6301248;22;20176;-62
2022/09/08 06:52:32;;;;;;;1999.90;999.90;;;;;;;18.74;100.00;92984.13;6301646;22;20185;-61
2022/09/08 06:55:22;;;;;;;1999.90;999.90;;;;;;;18.65;100.00;92987.22;6300819;22;20176;-61
2022/09/08 06:57:54;;;;;;;1999.90;999.90;;;;;;;18.62;100.00;92988.97;6275453;22;20184;-61
2022/09/08 07:00:24;;;;;;;1999.90;999.90;;;;;;;18.55;100.00;92974.97;6275399;22;20184;-61
2022/09/08 07:03:04;;;;;;;1999.90;999.90;;;;;;;18.45;100.00;92963.47;6300884;22;20232;-61
2022/09/08 07:05:56;;;;;;;1999.90;999.90;;;;;;;18.42;100.00;92947.16;6276320;22;20177;-64
2022/09/08 07:08:43;;;;;;;1999.90;999.90;;;;;;;18.16;100.00;92953.09;6303113;22;20187;-61
2022/09/08 07:11:45;;;;;;;1999.90;999.90;;;;;;;18.03;100.00;92928.03;6303186;22;20215;-61
2022/09/08 07:14:33;;;;;;;1999.90;999.90;;;;;;;18.00;100.00;92911.75;6276532;22;20179;-61
2022/09/08 07:17:04;;;;;;;1999.90;999.90;;;;;;;17.85;100.00;92911.34;6277039;22;20180;-61
2022/09/08 07:19:52;;;;;;;1999.90;999.90;;;;;;;17.68;100.00;92885.81;6303146;22;20160;-61
2022/09/08 07:22:48;;;;;;;1999.90;999.90;;;;;;;17.62;100.00;92865.75;6302783;22;20194;-60
2022/09/08 07:25:25;;;;;;;1999.90;999.90;;;;;;;17.46;100.00;92858.31;6302060;22;20255;-61
2022/09/08 07:27:59;;;;;;;1999.90;999.90;;;;;;;17.27;100.00;92841.56;6302500;22;20369;-62
2022/09/08 07:30:25;;;;;;;1999.90;999.90;;;;;;;17.23;100.00;92801.72;6302918;22;20175;-62
2022/09/08 07:32:57;;;;;;;1999.90;999.90;;;;;;;17.13;100.00;92764.63;6301771;22;20258;-64
2022/09/08 07:35:47;;;;;;;1999.90;999.90;;;;;;;17.04;100.00;92718.06;6302947;22;20180;-62
2022/09/08 07:38:21;;;;;;;1999.90;999.90;;;;;;;16.96;100.00;92675.72;6302329;22;20191;-61
2022/09/08 07:40:51;;;;;;;1999.90;999.90;;;;;;;16.92;100.00;92639.41;6302404;22;20185;-64
2022/09/08 07:43:17;;;;;;;1999.90;999.90;;;;;;;16.81;100.00;92609.16;6302053;22;20207;-63
2022/09/08 07:45:49;;;;;;;1999.90;999.90;;;;;;;16.79;100.00;92581.38;6302085;22;20200;-61
2022/09/08 07:48:35;;;;;;;1999.90;999.90;;;;;;;16.70;100.00;92551.34;6302120;22;20232;-62
2022/09/08 07:51:19;;;;;;;1999.90;999.90;;;;;;;16.65;100.00;92535.59;6276686;22;20176;-62
2022/09/08 07:54:17;;;;;;;1999.90;999.90;;;;;;;16.68;100.00;92493.25;6302141;22;20275;-63
2022/09/08 07:56:52;;;;;;;1999.90;999.90;;;;;;;16.67;100.00;92453.91;6302100;22;20180;-62
2022/09/08 07:59:29;;;;;;;1999.90;999.90;;;;;;;16.65;100.00;92439.16;6302375;22;20196;-62
2022/09/08 08:02:16;;;;;;;1999.90;999.90;;;;;;;16.62;100.00;92421.66;6276208;22;20180;-64
2022/09/08 08:05:19;;;;;;;1999.90;999.90;;;;;;;16.64;100.00;92393.56;6302754;22;20176;-63
2022/09/08 08:08:26;;;;;;;1999.90;999.90;;;;;;;16.62;100.00;92354.75;6301895;22;20176;-63
2022/09/08 08:11:01;;;;;;;1999.90;999.90;;;;;;;16.64;100.00;92327.44;6302225;22;20191;-62
2022/09/08 08:13:26;;;;;;;1999.90;999.90;;;;;;;16.63;100.00;92325.94;6276171;22;20202;-63
2022/09/08 08:16:00;;;;;;;1999.90;999.90;;;;;;;16.63;100.00;92331.44;6303141;22;20188;-63
2022/09/08 08:18:42;;;;;;;1999.90;999.90;;;;;;;16.64;100.00;92313.66;6277303;22;20195;-62
2022/09/08 08:21:15;;;;;;;1999.90;999.90;;;;;;;16.65;100.00;92302.13;6302376;22;20172;-62
2022/09/08 08:23:54;;;;;;;1999.90;999.90;;;;;;;16.64;100.00;92311.63;6302295;22;20173;-62
2022/09/08 08:26:37;;;;;;;1999.90;999.90;;;;;;;16.70;100.00;92352.91;6277153;22;20184;-63
2022/09/08 08:29:33;;;;;;;1999.90;999.90;;;;;;;16.76;100.00;92362.63;6276573;22;20180;-63
2022/09/08 08:32:40;;;;;;;1999.90;999.90;;;;;;;16.80;100.00;92407.19;6276705;22;20184;-62
2022/09/08 08:35:45;;;;;;;1999.90;999.90;;;;;;;16.84;100.00;92423.44;6154207;23;20569;-61
2022/09/08 08:38:39;;;;;;;1999.90;999.90;;;;;;;16.86;100.00;92451.97;6276634;22;20195;-63
2022/09/08 08:41:48;;;;;;;1999.90;999.90;;;;;;;16.99;100.00;92473.44;6276343;22;20681;-62
2022/09/08 08:44:31;;;;;;;1999.90;999.90;;;;;;;16.97;100.00;92496.00;6277134;22;20176;-62
2022/09/08 08:47:22;;;;;;;1999.90;999.90;;;;;;;17.13;100.00;92499.88;6276216;22;20184;-62
2022/09/08 08:50:24;;;;;;;1999.90;999.90;;;;;;;17.16;100.00;92504.38;6301573;22;20220;-63
2022/09/08 08:53:16;;;;;;;1999.90;999.90;;;;;;;17.27;100.00;92504.25;6302152;22;20172;-65
2022/09/08 08:56:19;;;;;;;1999.90;999.90;;;;;;;17.40;100.00;92509.88;6302030;22;20183;-61
2022/09/08 08:58:53;;;;;;;1999.90;999.90;;;;;;;17.50;100.00;92516.59;6302196;22;20249;-63
2022/09/08 09:01:37;;;;;;;1999.90;999.90;;;;;;;17.57;100.00;92538.84;6276983;22;20207;-62
2022/09/08 09:04:30;;;;;;;1999.90;999.90;;;;;;;17.60;100.00;92562.66;6275832;22;20268;-61
2022/09/08 09:07:08;;;;;;;1999.90;999.90;;;;;;;17.74;100.00;92599.41;6302322;22;20595;-61
2022/09/08 09:09:51;;;;;;;1999.90;999.90;;;;;;;17.87;100.00;92616.84;6276120;22;20172;-62
2022/09/08 09:12:37;;;;;;;1999.90;999.90;;;;;;;18.01;100.00;92637.03;6302530;22;20215;-60
2022/09/08 09:15:27;;;;;;;1999.90;999.90;;;;;;;18.19;100.00;92658.44;6301945;22;20190;-61
2022/09/08 09:18:13;;;;;;;1999.90;999.90;;;;;;;18.48;100.00;92668.69;6276171;22;20196;-61
2022/09/08 09:20:45;;;;;;;1999.90;999.90;;;;;;;18.65;100.00;92694.88;6276042;22;20179;-62
2022/09/08 09:23:24;;;;;;;1999.90;999.90;;;;;;;19.02;100.00;92716.31;6276519;22;20201;-62
2022/09/08 09:26:01;;;;;;;1999.90;999.90;;;;;;;19.52;100.00;92741.28;6301637;22;20177;-63
2022/09/08 09:28:52;;;;;;;1999.90;999.90;;;;;;;20.13;100.00;92760.53;6301197;22;20176;-61
2022/09/08 09:31:31;;;;;;;1999.90;999.90;;;;;;;20.99;100.00;92771.88;6302482;22;20244;-62
2022/09/08 09:34:21;;;;;;;1999.90;999.90;;;;;;;21.60;100.00;92819.34;6275983;22;20172;-61
2022/09/08 09:37:08;;;;;;;1999.90;999.90;;;;;;;22.34;100.00;92852.13;6302260;22;20584;-61
2022/09/08 09:39:59;;;;;;;1999.90;999.90;;;;;;;23.00;100.00;92888.00;6301984;22;20674;-61
2022/09/08 09:42:43;;;;;;;1999.90;999.90;;;;;;;22.68;100.00;92963.41;6276143;22;20211;-60
2022/09/08 09:45:27;;;;;;;1999.90;999.90;;;;;;;22.46;100.00;93023.06;6302078;22;20184;-61
2022/09/08 09:48:29;;;;;;;1999.90;999.90;;;;;;;23.14;100.00;93037.03;6276516;22;20184;-60
2022/09/08 09:51:19;;;;;;;1999.90;999.90;;;;;;;24.18;100.00;93065.09;6301607;22;20188;-61
2022/09/08 09:54:33;;;;;;;1999.90;999.90;;;;;;;24.05;100.00;93117.47;6301295;22;20180;-61
2022/09/08 09:57:36;;;;;;;1999.90;999.90;;;;;;;23.06;100.00;93175.47;6243937;22;20210;-59
2022/09/08 10:00:21;;;;;;;1999.90;999.90;;;;;;;22.58;100.00;93159.22;6301827;22;20194;-60
2022/09/08 10:03:01;;;;;;;1999.90;999.90;;;;;;;22.24;100.00;93165.38;6275750;22;20188;-62
2022/09/08 10:05:42;;;;;;;1999.90;999.90;;;;;;;22.25;100.00;93143.84;6276216;22;20226;-59
2022/09/08 10:08:35;;;;;;;1999.90;999.90;;;;;;;22.19;100.00;93146.72;6276233;22;20172;-59
2022/09/08 10:11:19;;;;;;;1999.90;999.90;;;;;;;21.85;100.00;93162.50;6302220;22;20605;-58
2022/09/08 10:14:13;;;;;;;1999.90;999.90;;;;;;;21.71;100.00;93180.41;6276192;22;20172;-60
2022/09/08 10:17:16;;;;;;;1999.90;999.90;;;;;;;21.66;100.00;93216.56;6255635;22;20184;-59
2022/09/08 10:20:00;;;;;;;1999.90;999.90;;;;;;;21.73;100.00;93205.66;6302200;22;20267;-59
2022/09/08 10:23:16;;;;;;;1999.90;999.90;;;;;;;22.00;100.00;93215.56;6301597;22;20468;-59
2022/09/08 10:25:50;;;;;;;1999.90;999.90;;;;;;;22.23;100.00;93244.53;6128802;23;20241;-59
2022/09/08 10:28:45;;;;;;;1999.90;999.90;;;;;;;22.07;100.00;93284.47;6278530;22;20184;-59
2022/09/08 10:31:31;;;;;;;1999.90;999.90;;;;;;;22.23;100.00;93319.63;6205266;22;20242;-59
2022/09/08 10:34:36;;;;;;;1999.90;999.90;;;;;;;22.33;100.00;93467.44;6275175;22;20210;-60
2022/09/08 10:37:19;;;;;;;1999.90;999.90;;;;;;;22.13;100.00;93771.84;6218549;22;20188;-59
2022/09/08 10:40:00;;;;;;;1999.90;999.90;;;;;;;22.00;100.00;93835.63;6276050;22;20186;-59
2022/09/08 10:42:42;;;;;;;1999.90;999.90;;;;;;;22.00;100.00;93909.97;6277129;22;20184;-60
2022/09/08 10:45:36;;;;;;;1999.90;999.90;;;;;;;22.26;100.00;93924.97;6302568;22;20249;-59
2022/09/08 10:48:39;;;;;;;1999.90;999.90;;;;;;;22.45;100.00;93987.13;6277139;22;20184;-60
2022/09/08 10:51:22;;;;;;;1999.90;999.90;;;;;;;22.74;100.00;94013.56;6277131;22;20180;-59
2022/09/08 10:53:57;;;;;;;1999.90;999.90;;;;;;;22.83;100.00;94048.69;6277257;22;20187;-62
2022/09/08 10:56:29;;;;;;;1999.90;999.90;;;;;;;22.20;100.00;94038.31;6302851;22;20207;-59
2022/09/08 10:59:15;;;;;;;1999.90;999.90;;;;;;;22.46;100.00;94058.22;6303292;22;20222;-60
2022/09/08 11:01:58;;;;;;;1999.90;999.90;;;;;;;22.74;100.00;94063.66;6303441;22;20172;-59
2022/09/08 11:04:42;;;;;;;1999.90;999.90;;;;;;;22.72;100.00;94093.28;6302495;22;20168;-60
2022/09/08 11:08:03;;;;;;;1999.90;999.90;;;;;;;22.64;100.00;94083.94;6302830;22;20180;-59
2022/09/08 11:10:46;;;;;;;1999.90;999.90;;;;;;;22.95;100.00;94112.16;6129666;23;20180;-59
2022/09/08 11:13:21;;;;;;;1999.90;999.90;;;;;;;22.96;100.00;94163.03;6276565;22;20186;-59
2022/09/08 11:16:05;;;;;;;1999.90;999.90;;;;;;;22.85;100.00;94177.78;6277217;22;20162;-59
2022/09/08 11:18:48;;;;;;;1999.90;999.90;;;;;;;22.80;100.00;94170.19;6302603;22;20188;-59
2022/09/08 11:21:39;;;;;;;1999.90;999.90;;;;;;;22.40;100.00;94140.94;6276431;22;20244;-55
2022/09/08 11:24:20;;;;;;;1999.90;999.90;;;;;;;22.17;100.00;94060.84;6302424;22;20212;-55
2022/09/08 11:27:07;;;;;;;1999.90;999.90;;;;;;;21.91;100.00;93961.06;6277187;22;20182;-53
2022/09/08 11:29:37;;;;;;;1999.90;999.90;;;;;;;21.84;100.00;93875.41;6302977;22;20184;-55
2022/09/08 11:32:08;;;;;;;1999.90;999.90;;;;;;;21.86;100.00;93836.72;6302722;22;20176;-54